sensor_id;sensor_type;location;lat;lon;timestamp;temperature;humidity
39277;DHT22;63149;48.086;-1.606;2022-12-18T06:02:53;-0.90;99.90
39277;DHT22;63149;48.086;-1.606;2022-12-18T06:05:20;-0.80;99.90
39277;DHT22;63149;48.086;-1.606;2022-12-18T06:07:47;-0.80;99.90
39277;DHT22;63149;48.086;-1.606;2022-12-18T06:10:14;-0.80;99.90
39277;DHT22;63149;48.086;-1.606;2022-12-18T06:12:41;-0.80;99.90
39277;DHT22;63149;48.086;-1.606;2022-12-18T06:15:09;-0.80;99.90
39277;DHT22;63149;48.086;-1.606;2022-12-18T06:17:36;-0.70;99.90
39277;DHT22;63149;48.086;-1.606;2022-12-18T06:20:05;-0.70;99.90
39277;DHT22;63149;48.086;-1.606;2022-12-18T06:22:32;-0.70;99.90
39277;DHT22;63149;48.086;-1.606;2022-12-18T06:25:00;-0.70;99.90
39277;DHT22;63149;48.086;-1.606;2022-12-18T06:27:27;-0.70;99.90
39277;DHT22;63149;48.086;-1.606;2022-12-18T06:29:54;-0.70;99.90
39277;DHT22;63149;48.086;-1.606;2022-12-18T06:32:21;-0.60;99.90
39277;DHT22;63149;48.086;-1.606;2022-12-18T06:34:48;-0.60;99.90
39277;DHT22;63149;48.086;-1.606;2022-12-18T06:37:17;-0.60;99.90
39277;DHT22;63149;48.086;-1.606;2022-12-18T06:39:43;-0.50;99.90
39277;DHT22;63149;48.086;-1.606;2022-12-18T06:42:10;-0.60;99.90
39277;DHT22;63149;48.086;-1.606;2022-12-18T06:44:37;-0.50;99.90
39277;DHT22;63149;48.086;-1.606;2022-12-18T06:47:04;-0.50;99.90
39277;DHT22;63149;48.086;-1.606;2022-12-18T06:49:31;-0.50;99.90
39277;DHT22;63149;48.086;-1.606;2022-12-18T06:51:58;-0.50;99.90
39277;DHT22;63149;48.086;-1.606;2022-12-18T06:54:26;-0.40;99.90
39277;DHT22;63149;48.086;-1.606;2022-12-18T06:56:53;-0.50;99.90
39277;DHT22;63149;48.086;-1.606;2022-12-18T06:59:21;-0.40;99.90
39277;DHT22;63149;48.086;-1.606;2022-12-18T07:01:48;-0.40;99.90
39277;DHT22;63149;48.086;-1.606;2022-12-18T07:04:15;-0.40;99.90
39277;DHT22;63149;48.086;-1.606;2022-12-18T07:06:42;-0.40;99.90
39277;DHT22;63149;48.086;-1.606;2022-12-18T07:09:09;-0.30;99.90
39277;DHT22;63149;48.086;-1.606;2022-12-18T07:11:37;-0.40;99.90
39277;DHT22;63149;48.086;-1.606;2022-12-18T07:14:04;-0.30;99.90
39277;DHT22;63149;48.086;-1.606;2022-12-18T07:16:31;-0.30;99.90
39277;DHT22;63149;48.086;-1.606;2022-12-18T07:18:58;-0.30;99.90
39277;DHT22;63149;48.086;-1.606;2022-12-18T07:21:25;-0.20;99.90
39277;DHT22;63149;48.086;-1.606;2022-12-18T07:23:52;-0.30;99.90
39277;DHT22;63149;48.086;-1.606;2022-12-18T07:26:20;-0.20;99.90
39277;DHT22;63149;48.086;-1.606;2022-12-18T07:28:49;-0.20;99.90
39277;DHT22;63149;48.086;-1.606;2022-12-18T07:31:18;-0.20;99.90
39277;DHT22;63149;48.086;-1.606;2022-12-18T07:33:46;-0.20;99.90
39277;DHT22;63149;48.086;-1.606;2022-12-18T07:36:13;-0.20;99.90
39277;DHT22;63149;48.086;-1.606;2022-12-18T07:38:41;-0.10;99.90
39277;DHT22;63149;48.086;-1.606;2022-12-18T07:41:09;-0.10;99.90
39277;DHT22;63149;48.086;-1.606;2022-12-18T07:43:37;-0.10;99.90
39277;DHT22;63149;48.086;-1.606;2022-12-18T07:46:07;0.00;99.90
39277;DHT22;63149;48.086;-1.606;2022-12-18T07:48:34;0.00;99.90
39277;DHT22;63149;48.086;-1.606;2022-12-18T07:51:02;0.00;99.90
39277;DHT22;63149;48.086;-1.606;2022-12-18T07:53:30;0.00;99.90
39277;DHT22;63149;48.086;-1.606;2022-12-18T07:55:57;0.00;99.90
39277;DHT22;63149;48.086;-1.606;2022-12-18T07:58:24;0.10;99.90
39277;DHT22;63149;48.086;-1.606;2022-12-18T08:00:51;0.00;99.90
39277;DHT22;63149;48.086;-1.606;2022-12-18T08:03:20;0.10;99.90
39277;DHT22;63149;48.086;-1.606;2022-12-18T08:05:47;0.10;99.90
39277;DHT22;63149;48.086;-1.606;2022-12-18T08:08:14;0.20;99.90
39277;DHT22;63149;48.086;-1.606;2022-12-18T08:10:41;0.20;99.90
39277;DHT22;63149;48.086;-1.606;2022-12-18T08:13:07;0.20;99.90
39277;DHT22;63149;48.086;-1.606;2022-12-18T08:15:34;0.20;99.90
39277;DHT22;63149;48.086;-1.606;2022-12-18T08:18:01;0.30;99.90
39277;DHT22;63149;48.086;-1.606;2022-12-18T08:20:30;0.30;99.90
39277;DHT22;63149;48.086;-1.606;2022-12-18T08:22:57;0.30;99.90
39277;DHT22;63149;48.086;-1.606;2022-12-18T08:25:24;0.40;99.90
39277;DHT22;63149;48.086;-1.606;2022-12-18T08:27:51;0.40;99.90
39277;DHT22;63149;48.086;-1.606;2022-12-18T08:30:18;0.40;99.90
39277;DHT22;63149;48.086;-1.606;2022-12-18T08:32:45;0.40;99.90
39277;DHT22;63149;48.086;-1.606;2022-12-18T08:35:12;0.40;99.90
39277;DHT22;63149;48.086;-1.606;2022-12-18T08:37:40;0.50;99.90
39277;DHT22;63149;48.086;-1.606;2022-12-18T08:40:08;0.50;99.90
39277;DHT22;63149;48.086;-1.606;2022-12-18T08:42:35;0.50;99.90
39277;DHT22;63149;48.086;-1.606;2022-12-18T08:45:19;0.60;99.90
39277;DHT22;63149;48.086;-1.606;2022-12-18T08:47:46;0.50;99.90
39277;DHT22;63149;48.086;-1.606;2022-12-18T08:50:13;0.60;99.90
39277;DHT22;63149;48.086;-1.606;2022-12-18T08:52:42;0.60;99.90
39277;DHT22;63149;48.086;-1.606;2022-12-18T08:55:09;0.70;99.90
39277;DHT22;63149;48.086;-1.606;2022-12-18T08:57:36;0.60;99.90
39277;DHT22;63149;48.086;-1.606;2022-12-18T09:00:04;0.70;99.90
39277;DHT22;63149;48.086;-1.606;2022-12-18T09:02:31;0.70;99.90
39277;DHT22;63149;48.086;-1.606;2022-12-18T09:04:58;0.80;99.90
39277;DHT22;63149;48.086;-1.606;2022-12-18T09:07:25;0.80;99.90
39277;DHT22;63149;48.086;-1.606;2022-12-18T09:09:53;0.80;99.90
39277;DHT22;63149;48.086;-1.606;2022-12-18T09:12:20;0.80;99.90
39277;DHT22;63149;48.086;-1.606;2022-12-18T09:14:47;0.80;99.90
39277;DHT22;63149;48.086;-1.606;2022-12-18T09:17:15;0.90;99.90
39277;DHT22;63149;48.086;-1.606;2022-12-18T09:19:41;0.90;99.90
39277;DHT22;63149;48.086;-1.606;2022-12-18T09:22:09;0.90;99.90
39277;DHT22;63149;48.086;-1.606;2022-12-18T09:24:36;0.90;99.90
39277;DHT22;63149;48.086;-1.606;2022-12-18T09:27:04;0.90;99.90
39277;DHT22;63149;48.086;-1.606;2022-12-18T09:29:32;0.90;99.90
39277;DHT22;63149;48.086;-1.606;2022-12-18T09:31:59;1.00;99.90
39277;DHT22;63149;48.086;-1.606;2022-12-18T09:34:26;1.00;99.90
39277;DHT22;63149;48.086;-1.606;2022-12-18T09:36:53;1.00;99.90
39277;DHT22;63149;48.086;-1.606;2022-12-18T09:39:20;1.10;99.90
39277;DHT22;63149;48.086;-1.606;2022-12-18T09:41:50;1.10;99.90
39277;DHT22;63149;48.086;-1.606;2022-12-18T09:44:23;1.10;99.90
39277;DHT22;63149;48.086;-1.606;2022-12-18T09:46:55;1.10;99.90
39277;DHT22;63149;48.086;-1.606;2022-12-18T09:49:29;1.20;99.90
39277;DHT22;63149;48.086;-1.606;2022-12-18T09:52:01;1.20;99.90
39277;DHT22;63149;48.086;-1.606;2022-12-18T09:54:33;1.20;99.90
39277;DHT22;63149;48.086;-1.606;2022-12-18T09:57:02;1.20;99.90
39277;DHT22;63149;48.086;-1.606;2022-12-18T09:59:35;1.20;99.90
39277;DHT22;63149;48.086;-1.606;2022-12-18T10:02:14;1.30;99.90
39277;DHT22;63149;48.086;-1.606;2022-12-18T10:04:41;1.30;99.90
39277;DHT22;63149;48.086;-1.606;2022-12-18T10:07:14;1.30;99.90
39277;DHT22;63149;48.086;-1.606;2022-12-18T10:09:49;1.30;99.90
39277;DHT22;63149;48.086;-1.606;2022-12-18T10:12:23;1.30;99.90
39277;DHT22;63149;48.086;-1.606;2022-12-18T10:14:58;1.30;99.90
39277;DHT22;63149;48.086;-1.606;2022-12-18T10:17:32;1.40;99.90
39277;DHT22;63149;48.086;-1.606;2022-12-18T10:20:05;1.40;99.90
39277;DHT22;63149;48.086;-1.606;2022-12-18T10:22:47;1.40;99.90
39277;DHT22;63149;48.086;-1.606;2022-12-18T10:25:20;1.40;99.90
39277;DHT22;63149;48.086;-1.606;2022-12-18T10:27:52;1.40;99.90
39277;DHT22;63149;48.086;-1.606;2022-12-18T10:30:23;1.40;99.90
39277;DHT22;63149;48.086;-1.606;2022-12-18T10:32:50;1.50;99.90
39277;DHT22;63149;48.086;-1.606;2022-12-18T10:35:19;1.50;99.90
39277;DHT22;63149;48.086;-1.606;2022-12-18T10:38:07;1.50;99.90
39277;DHT22;63149;48.086;-1.606;2022-12-18T10:40:52;1.50;99.90
39277;DHT22;63149;48.086;-1.606;2022-12-18T10:43:21;1.60;99.90
39277;DHT22;63149;48.086;-1.606;2022-12-18T10:46:08;1.60;99.90
39277;DHT22;63149;48.086;-1.606;2022-12-18T10:48:41;1.60;99.90
39277;DHT22;63149;48.086;-1.606;2022-12-18T10:51:20;1.60;99.90
39277;DHT22;63149;48.086;-1.606;2022-12-18T10:53:52;1.60;99.90
39277;DHT22;63149;48.086;-1.606;2022-12-18T10:56:20;1.60;99.90
39277;DHT22;63149;48.086;-1.606;2022-12-18T11:02:38;1.70;99.90
39277;DHT22;63149;48.086;-1.606;2022-12-18T11:05:24;1.70;99.90
39277;DHT22;63149;48.086;-1.606;2022-12-18T11:07:52;1.70;99.90
39277;DHT22;63149;48.086;-1.606;2022-12-18T11:10:21;1.70;99.90
39277;DHT22;63149;48.086;-1.606;2022-12-18T11:12:48;1.70;99.90
39277;DHT22;63149;48.086;-1.606;2022-12-18T11:15:18;1.70;99.90
39277;DHT22;63149;48.086;-1.606;2022-12-18T11:17:48;1.70;99.90
39277;DHT22;63149;48.086;-1.606;2022-12-18T11:20:29;1.70;99.90
39277;DHT22;63149;48.086;-1.606;2022-12-18T11:22:58;1.80;99.90
39277;DHT22;63149;48.086;-1.606;2022-12-18T11:28:03;1.80;99.90
39277;DHT22;63149;48.086;-1.606;2022-12-18T11:30:31;1.80;99.90
39277;DHT22;63149;48.086;-1.606;2022-12-18T11:38:17;1.90;99.90
39277;DHT22;63149;48.086;-1.606;2022-12-18T11:45:54;1.90;99.90
39277;DHT22;63149;48.086;-1.606;2022-12-18T11:48:24;1.90;99.90
39277;DHT22;63149;48.086;-1.606;2022-12-18T11:56:22;2.00;99.90
39277;DHT22;63149;48.086;-1.606;2022-12-18T11:58:59;2.00;99.90
39277;DHT22;63149;48.086;-1.606;2022-12-18T12:01:42;2.10;99.90
39277;DHT22;63149;48.086;-1.606;2022-12-18T12:07:17;2.10;99.90
39277;DHT22;63149;48.086;-1.606;2022-12-18T12:09:49;2.20;99.90
39277;DHT22;63149;48.086;-1.606;2022-12-18T12:12:30;2.20;99.90
39277;DHT22;63149;48.086;-1.606;2022-12-18T12:15:17;2.20;99.90
39277;DHT22;63149;48.086;-1.606;2022-12-18T12:17:52;2.30;99.90
39277;DHT22;63149;48.086;-1.606;2022-12-18T12:20:25;2.30;99.90
39277;DHT22;63149;48.086;-1.606;2022-12-18T12:22:59;2.40;99.90
39277;DHT22;63149;48.086;-1.606;2022-12-18T12:25:35;2.40;99.90
39277;DHT22;63149;48.086;-1.606;2022-12-18T12:28:20;2.40;99.90
39277;DHT22;63149;48.086;-1.606;2022-12-18T12:30:58;2.50;99.90
39277;DHT22;63149;48.086;-1.606;2022-12-18T12:33:36;2.50;99.90
39277;DHT22;63149;48.086;-1.606;2022-12-18T12:36:13;2.50;99.90
39277;DHT22;63149;48.086;-1.606;2022-12-18T12:38:47;2.60;99.90
39277;DHT22;63149;48.086;-1.606;2022-12-18T12:41:19;2.60;99.90
39277;DHT22;63149;48.086;-1.606;2022-12-18T12:44:09;2.60;99.90
39277;DHT22;63149;48.086;-1.606;2022-12-18T12:46:40;2.60;99.90
39277;DHT22;63149;48.086;-1.606;2022-12-18T12:49:12;2.70;99.90
39277;DHT22;63149;48.086;-1.606;2022-12-18T12:51:43;2.70;99.90
39277;DHT22;63149;48.086;-1.606;2022-12-18T12:54:15;2.70;99.90
39277;DHT22;63149;48.086;-1.606;2022-12-18T12:56:48;2.70;99.90
39277;DHT22;63149;48.086;-1.606;2022-12-18T12:59:24;2.70;99.90
39277;DHT22;63149;48.086;-1.606;2022-12-18T13:01:57;2.70;99.90
39277;DHT22;63149;48.086;-1.606;2022-12-18T13:04:33;2.70;99.90
39277;DHT22;63149;48.086;-1.606;2022-12-18T13:07:06;2.80;99.90
39277;DHT22;63149;48.086;-1.606;2022-12-18T13:10:22;2.80;99.90
39277;DHT22;63149;48.086;-1.606;2022-12-18T13:12:54;2.80;99.90
39277;DHT22;63149;48.086;-1.606;2022-12-18T13:15:25;2.90;99.90
39277;DHT22;63149;48.086;-1.606;2022-12-18T13:18:20;2.90;99.90
39277;DHT22;63149;48.086;-1.606;2022-12-18T13:20:50;3.00;99.90
39277;DHT22;63149;48.086;-1.606;2022-12-18T13:23:30;3.00;99.90
39277;DHT22;63149;48.086;-1.606;2022-12-18T13:25:59;3.00;99.90
39277;DHT22;63149;48.086;-1.606;2022-12-18T13:28:52;3.00;99.90
39277;DHT22;63149;48.086;-1.606;2022-12-18T13:34:35;3.10;99.90
39277;DHT22;63149;48.086;-1.606;2022-12-18T13:37:39;3.20;99.90
39277;DHT22;63149;48.086;-1.606;2022-12-18T13:43:31;3.20;99.90
39277;DHT22;63149;48.086;-1.606;2022-12-18T13:46:05;3.20;99.90
39277;DHT22;63149;48.086;-1.606;2022-12-18T13:48:34;3.30;99.90
39277;DHT22;63149;48.086;-1.606;2022-12-18T13:51:05;3.30;99.90
39277;DHT22;63149;48.086;-1.606;2022-12-18T13:53:37;3.30;99.90
39277;DHT22;63149;48.086;-1.606;2022-12-18T13:56:05;3.30;99.90
39277;DHT22;63149;48.086;-1.606;2022-12-18T13:58:33;3.30;99.90
39277;DHT22;63149;48.086;-1.606;2022-12-18T14:01:01;3.40;99.90
39277;DHT22;63149;48.086;-1.606;2022-12-18T14:03:30;3.40;99.90
39277;DHT22;63149;48.086;-1.606;2022-12-18T14:06:04;3.40;99.90
39277;DHT22;63149;48.086;-1.606;2022-12-18T14:08:36;3.50;99.90
39277;DHT22;63149;48.086;-1.606;2022-12-18T14:11:05;3.50;99.90
39277;DHT22;63149;48.086;-1.606;2022-12-18T14:13:36;3.60;99.90
39277;DHT22;63149;48.086;-1.606;2022-12-18T14:16:05;3.70;99.90
39277;DHT22;63149;48.086;-1.606;2022-12-18T14:18:42;3.70;99.90
39277;DHT22;63149;48.086;-1.606;2022-12-18T14:21:18;3.80;99.90
39277;DHT22;63149;48.086;-1.606;2022-12-18T14:23:46;3.80;99.90
39277;DHT22;63149;48.086;-1.606;2022-12-18T14:26:23;3.90;99.90
39277;DHT22;63149;48.086;-1.606;2022-12-18T14:28:51;4.00;99.90
39277;DHT22;63149;48.086;-1.606;2022-12-18T14:31:20;4.10;99.90
39277;DHT22;63149;48.086;-1.606;2022-12-18T14:33:47;4.10;99.90
39277;DHT22;63149;48.086;-1.606;2022-12-18T14:36:16;4.30;99.90
39277;DHT22;63149;48.086;-1.606;2022-12-18T14:38:48;4.40;99.90
39277;DHT22;63149;48.086;-1.606;2022-12-18T14:41:15;4.50;99.90
39277;DHT22;63149;48.086;-1.606;2022-12-18T14:43:45;4.50;99.90
39277;DHT22;63149;48.086;-1.606;2022-12-18T14:46:32;4.60;99.90
39277;DHT22;63149;48.086;-1.606;2022-12-18T14:49:02;4.60;99.90
39277;DHT22;63149;48.086;-1.606;2022-12-18T14:51:30;4.70;99.90
39277;DHT22;63149;48.086;-1.606;2022-12-18T14:53:59;4.70;99.90
39277;DHT22;63149;48.086;-1.606;2022-12-18T14:56:28;4.70;99.90
39277;DHT22;63149;48.086;-1.606;2022-12-18T14:58:57;4.90;99.90
39277;DHT22;63149;48.086;-1.606;2022-12-18T15:01:31;4.90;99.90
39277;DHT22;63149;48.086;-1.606;2022-12-18T15:04:00;4.80;99.90
39277;DHT22;63149;48.086;-1.606;2022-12-18T15:06:31;4.80;99.90
39277;DHT22;63149;48.086;-1.606;2022-12-18T15:09:00;4.90;99.90
39277;DHT22;63149;48.086;-1.606;2022-12-18T15:11:30;4.90;99.90
39277;DHT22;63149;48.086;-1.606;2022-12-18T15:13:59;5.00;99.90
39277;DHT22;63149;48.086;-1.606;2022-12-18T15:16:28;5.00;99.90
39277;DHT22;63149;48.086;-1.606;2022-12-18T15:18:55;5.10;99.90
39277;DHT22;63149;48.086;-1.606;2022-12-18T15:21:23;5.00;99.90
39277;DHT22;63149;48.086;-1.606;2022-12-18T15:23:51;5.10;99.90
39277;DHT22;63149;48.086;-1.606;2022-12-18T15:26:20;5.10;99.90
39277;DHT22;63149;48.086;-1.606;2022-12-18T15:28:49;5.10;99.90
39277;DHT22;63149;48.086;-1.606;2022-12-18T15:31:23;5.10;99.90
39277;DHT22;63149;48.086;-1.606;2022-12-18T15:34:12;5.10;99.90
39277;DHT22;63149;48.086;-1.606;2022-12-18T15:36:40;5.20;99.90
39277;DHT22;63149;48.086;-1.606;2022-12-18T15:39:11;5.20;99.90
39277;DHT22;63149;48.086;-1.606;2022-12-18T15:41:38;5.30;99.90
39277;DHT22;63149;48.086;-1.606;2022-12-18T15:44:22;5.30;99.90
39277;DHT22;63149;48.086;-1.606;2022-12-18T15:46:48;5.30;99.90
39277;DHT22;63149;48.086;-1.606;2022-12-18T15:49:16;5.30;99.90
39277;DHT22;63149;48.086;-1.606;2022-12-18T15:51:44;5.40;99.90
39277;DHT22;63149;48.086;-1.606;2022-12-18T15:54:13;5.40;99.90
39277;DHT22;63149;48.086;-1.606;2022-12-18T15:56:41;5.50;99.90
39277;DHT22;63149;48.086;-1.606;2022-12-18T15:59:40;5.50;99.90
39277;DHT22;63149;48.086;-1.606;2022-12-18T16:02:16;5.60;99.90
39277;DHT22;63149;48.086;-1.606;2022-12-18T16:04:45;5.60;99.90
39277;DHT22;63149;48.086;-1.606;2022-12-18T16:07:12;5.60;99.90
39277;DHT22;63149;48.086;-1.606;2022-12-18T16:09:40;5.60;99.90
39277;DHT22;63149;48.086;-1.606;2022-12-18T16:12:15;5.70;99.90
39277;DHT22;63149;48.086;-1.606;2022-12-18T16:14:43;5.80;99.90
39277;DHT22;63149;48.086;-1.606;2022-12-18T16:17:12;5.90;99.90
39277;DHT22;63149;48.086;-1.606;2022-12-18T16:19:39;5.90;99.90
39277;DHT22;63149;48.086;-1.606;2022-12-18T16:22:23;5.90;99.90
39277;DHT22;63149;48.086;-1.606;2022-12-18T16:24:51;5.90;99.90
39277;DHT22;63149;48.086;-1.606;2022-12-18T16:27:18;6.00;99.90
39277;DHT22;63149;48.086;-1.606;2022-12-18T16:29:45;6.00;99.90
39277;DHT22;63149;48.086;-1.606;2022-12-18T16:32:15;6.00;99.90
39277;DHT22;63149;48.086;-1.606;2022-12-18T16:34:43;6.00;99.90
39277;DHT22;63149;48.086;-1.606;2022-12-18T16:37:13;6.00;99.90
39277;DHT22;63149;48.086;-1.606;2022-12-18T16:39:40;6.10;99.90
39277;DHT22;63149;48.086;-1.606;2022-12-18T16:42:11;6.10;99.90
39277;DHT22;63149;48.086;-1.606;2022-12-18T16:44:40;6.20;99.90
39277;DHT22;63149;48.086;-1.606;2022-12-18T16:47:07;6.10;99.90
39277;DHT22;63149;48.086;-1.606;2022-12-18T16:49:34;6.10;99.90
39277;DHT22;63149;48.086;-1.606;2022-12-18T16:52:01;6.20;99.90
39277;DHT22;63149;48.086;-1.606;2022-12-18T16:54:29;6.20;99.90
39277;DHT22;63149;48.086;-1.606;2022-12-18T16:56:56;6.20;99.90
39277;DHT22;63149;48.086;-1.606;2022-12-18T16:59:23;6.30;99.90
39277;DHT22;63149;48.086;-1.606;2022-12-18T17:01:52;6.30;99.90
39277;DHT22;63149;48.086;-1.606;2022-12-18T17:04:20;6.30;99.90
39277;DHT22;63149;48.086;-1.606;2022-12-18T17:06:47;6.40;99.90
39277;DHT22;63149;48.086;-1.606;2022-12-18T17:09:17;6.30;99.90
39277;DHT22;63149;48.086;-1.606;2022-12-18T17:11:47;6.30;99.90
39277;DHT22;63149;48.086;-1.606;2022-12-18T17:14:15;6.40;99.90
39277;DHT22;63149;48.086;-1.606;2022-12-18T17:16:42;6.40;99.90
39277;DHT22;63149;48.086;-1.606;2022-12-18T17:19:09;6.50;99.90
39277;DHT22;63149;48.086;-1.606;2022-12-18T17:21:36;6.40;99.90
39277;DHT22;63149;48.086;-1.606;2022-12-18T17:24:04;6.40;99.90
39277;DHT22;63149;48.086;-1.606;2022-12-18T17:26:31;6.50;99.90
39277;DHT22;63149;48.086;-1.606;2022-12-18T17:28:59;6.50;99.90
39277;DHT22;63149;48.086;-1.606;2022-12-18T17:31:28;6.50;99.90
39277;DHT22;63149;48.086;-1.606;2022-12-18T17:33:55;6.60;99.90
39277;DHT22;63149;48.086;-1.606;2022-12-18T17:36:23;6.60;99.90
39277;DHT22;63149;48.086;-1.606;2022-12-18T17:38:54;6.60;99.90
39277;DHT22;63149;48.086;-1.606;2022-12-18T17:41:22;6.70;99.90
39277;DHT22;63149;48.086;-1.606;2022-12-18T17:43:53;6.70;99.90
39277;DHT22;63149;48.086;-1.606;2022-12-18T17:46:22;6.70;99.90
39277;DHT22;63149;48.086;-1.606;2022-12-18T17:48:50;6.70;99.90
39277;DHT22;63149;48.086;-1.606;2022-12-18T17:51:17;6.80;99.90
39277;DHT22;63149;48.086;-1.606;2022-12-18T17:53:44;6.80;99.90
39277;DHT22;63149;48.086;-1.606;2022-12-18T17:56:13;6.80;99.90
39277;DHT22;63149;48.086;-1.606;2022-12-18T17:58:41;6.80;99.90
39277;DHT22;63149;48.086;-1.606;2022-12-18T18:01:08;6.90;99.90
39277;DHT22;63149;48.086;-1.606;2022-12-18T18:03:40;6.90;99.90
39277;DHT22;63149;48.086;-1.606;2022-12-18T18:06:07;6.90;99.90
39277;DHT22;63149;48.086;-1.606;2022-12-18T18:08:35;7.00;99.90
39277;DHT22;63149;48.086;-1.606;2022-12-18T18:11:04;7.00;99.90
39277;DHT22;63149;48.086;-1.606;2022-12-18T18:13:45;7.00;99.90
39277;DHT22;63149;48.086;-1.606;2022-12-18T18:16:28;7.10;99.90
39277;DHT22;63149;48.086;-1.606;2022-12-18T18:19:01;7.10;99.90
39277;DHT22;63149;48.086;-1.606;2022-12-18T18:21:28;7.10;99.90
39277;DHT22;63149;48.086;-1.606;2022-12-18T18:23:58;7.20;99.90
39277;DHT22;63149;48.086;-1.606;2022-12-18T18:26:26;7.20;99.90
39277;DHT22;63149;48.086;-1.606;2022-12-18T18:28:56;7.20;99.90
39277;DHT22;63149;48.086;-1.606;2022-12-18T18:31:25;7.30;99.90
39277;DHT22;63149;48.086;-1.606;2022-12-18T18:33:52;7.30;99.90
39277;DHT22;63149;48.086;-1.606;2022-12-18T18:36:21;7.30;99.90
39277;DHT22;63149;48.086;-1.606;2022-12-18T18:38:48;7.40;99.90
39277;DHT22;63149;48.086;-1.606;2022-12-18T18:41:16;7.40;99.90
39277;DHT22;63149;48.086;-1.606;2022-12-18T18:43:43;7.50;99.90
39277;DHT22;63149;48.086;-1.606;2022-12-18T18:46:13;7.50;99.90
39277;DHT22;63149;48.086;-1.606;2022-12-18T18:48:40;7.60;99.90
39277;DHT22;63149;48.086;-1.606;2022-12-18T18:51:10;7.60;99.90
39277;DHT22;63149;48.086;-1.606;2022-12-18T18:53:39;7.60;99.90
39277;DHT22;63149;48.086;-1.606;2022-12-18T18:56:08;7.70;99.90
39277;DHT22;63149;48.086;-1.606;2022-12-18T18:58:35;7.70;99.90
39277;DHT22;63149;48.086;-1.606;2022-12-18T19:01:06;7.80;99.90
39277;DHT22;63149;48.086;-1.606;2022-12-18T19:03:33;7.90;99.90
39277;DHT22;63149;48.086;-1.606;2022-12-18T19:06:02;7.90;99.90
39277;DHT22;63149;48.086;-1.606;2022-12-18T19:08:33;7.90;99.90
39277;DHT22;63149;48.086;-1.606;2022-12-18T19:11:03;8.00;99.90
39277;DHT22;63149;48.086;-1.606;2022-12-18T19:13:32;8.00;99.90
39277;DHT22;63149;48.086;-1.606;2022-12-18T19:16:03;8.10;99.90
39277;DHT22;63149;48.086;-1.606;2022-12-18T19:18:30;8.10;99.90
39277;DHT22;63149;48.086;-1.606;2022-12-18T19:20:59;8.10;99.90
39277;DHT22;63149;48.086;-1.606;2022-12-18T19:23:26;8.10;99.90
39277;DHT22;63149;48.086;-1.606;2022-12-18T19:25:53;8.10;99.90
39277;DHT22;63149;48.086;-1.606;2022-12-18T19:28:22;8.20;99.90
39277;DHT22;63149;48.086;-1.606;2022-12-18T19:30:54;8.30;99.90
39277;DHT22;63149;48.086;-1.606;2022-12-18T19:33:22;8.30;99.90
39277;DHT22;63149;48.086;-1.606;2022-12-18T19:35:49;8.40;99.90
39277;DHT22;63149;48.086;-1.606;2022-12-18T19:38:17;8.40;99.90
39277;DHT22;63149;48.086;-1.606;2022-12-18T19:40:43;8.30;99.90
39277;DHT22;63149;48.086;-1.606;2022-12-18T19:43:13;8.40;99.90
39277;DHT22;63149;48.086;-1.606;2022-12-18T19:45:41;8.40;99.90
39277;DHT22;63149;48.086;-1.606;2022-12-18T19:48:09;8.40;99.90
39277;DHT22;63149;48.086;-1.606;2022-12-18T19:50:39;8.40;99.90
39277;DHT22;63149;48.086;-1.606;2022-12-18T19:53:07;8.40;99.90
39277;DHT22;63149;48.086;-1.606;2022-12-18T19:55:39;8.40;99.90
39277;DHT22;63149;48.086;-1.606;2022-12-18T19:58:06;8.50;99.90
39277;DHT22;63149;48.086;-1.606;2022-12-18T20:00:33;8.50;99.90
39277;DHT22;63149;48.086;-1.606;2022-12-18T20:03:01;8.50;99.90
39277;DHT22;63149;48.086;-1.606;2022-12-18T20:05:29;8.50;99.90
39277;DHT22;63149;48.086;-1.606;2022-12-18T20:07:56;8.60;99.90
39277;DHT22;63149;48.086;-1.606;2022-12-18T20:10:23;8.60;99.90
39277;DHT22;63149;48.086;-1.606;2022-12-18T20:12:50;8.60;99.90
39277;DHT22;63149;48.086;-1.606;2022-12-18T20:15:17;8.70;99.90
39277;DHT22;63149;48.086;-1.606;2022-12-18T20:17:44;8.70;99.90
39277;DHT22;63149;48.086;-1.606;2022-12-18T20:20:12;8.60;99.90
39277;DHT22;63149;48.086;-1.606;2022-12-18T20:22:39;8.60;99.90
39277;DHT22;63149;48.086;-1.606;2022-12-18T20:25:07;8.70;99.90
39277;DHT22;63149;48.086;-1.606;2022-12-18T20:27:34;8.70;99.90
39277;DHT22;63149;48.086;-1.606;2022-12-18T20:30:01;8.80;99.90
39277;DHT22;63149;48.086;-1.606;2022-12-18T20:32:28;8.80;99.90
39277;DHT22;63149;48.086;-1.606;2022-12-18T20:34:54;8.70;99.90
39277;DHT22;63149;48.086;-1.606;2022-12-18T20:37:23;8.80;99.90
39277;DHT22;63149;48.086;-1.606;2022-12-18T20:39:50;8.80;99.90
39277;DHT22;63149;48.086;-1.606;2022-12-18T20:42:17;8.90;99.90
39277;DHT22;63149;48.086;-1.606;2022-12-18T20:44:44;8.90;99.90
39277;DHT22;63149;48.086;-1.606;2022-12-18T20:47:11;8.90;99.90
39277;DHT22;63149;48.086;-1.606;2022-12-18T20:49:38;8.90;99.90
39277;DHT22;63149;48.086;-1.606;2022-12-18T20:52:05;8.90;99.90
39277;DHT22;63149;48.086;-1.606;2022-12-18T20:54:34;8.90;99.90
39277;DHT22;63149;48.086;-1.606;2022-12-18T20:57:01;9.00;99.90
39277;DHT22;63149;48.086;-1.606;2022-12-18T20:59:28;9.10;99.90
39277;DHT22;63149;48.086;-1.606;2022-12-18T21:01:55;9.00;99.90
39277;DHT22;63149;48.086;-1.606;2022-12-18T21:04:23;9.00;99.90
39277;DHT22;63149;48.086;-1.606;2022-12-18T21:06:50;9.00;99.90
39277;DHT22;63149;48.086;-1.606;2022-12-18T21:09:17;9.00;99.90
39277;DHT22;63149;48.086;-1.606;2022-12-18T21:11:46;9.10;99.90
39277;DHT22;63149;48.086;-1.606;2022-12-18T21:14:30;9.10;99.90
39277;DHT22;63149;48.086;-1.606;2022-12-18T21:16:57;9.10;99.90
39277;DHT22;63149;48.086;-1.606;2022-12-18T21:19:27;9.10;99.90
39277;DHT22;63149;48.086;-1.606;2022-12-18T21:21:55;9.10;99.90
39277;DHT22;63149;48.086;-1.606;2022-12-18T21:24:22;9.10;99.90
39277;DHT22;63149;48.086;-1.606;2022-12-18T21:26:53;9.10;99.90
39277;DHT22;63149;48.086;-1.606;2022-12-18T21:29:22;9.10;99.90
39277;DHT22;63149;48.086;-1.606;2022-12-18T21:31:50;9.10;99.90
39277;DHT22;63149;48.086;-1.606;2022-12-18T21:34:20;9.10;99.90
39277;DHT22;63149;48.086;-1.606;2022-12-18T21:36:47;9.10;99.90
39277;DHT22;63149;48.086;-1.606;2022-12-18T21:39:15;9.10;99.90
39277;DHT22;63149;48.086;-1.606;2022-12-18T21:41:42;9.10;99.90
39277;DHT22;63149;48.086;-1.606;2022-12-18T21:44:29;9.10;99.90
39277;DHT22;63149;48.086;-1.606;2022-12-18T21:46:56;9.10;99.90
39277;DHT22;63149;48.086;-1.606;2022-12-18T21:49:24;9.10;99.90
39277;DHT22;63149;48.086;-1.606;2022-12-18T21:51:52;9.30;99.90
39277;DHT22;63149;48.086;-1.606;2022-12-18T21:54:20;9.30;99.90
39277;DHT22;63149;48.086;-1.606;2022-12-18T21:56:48;9.30;99.90
39277;DHT22;63149;48.086;-1.606;2022-12-18T21:59:17;9.30;99.90
39277;DHT22;63149;48.086;-1.606;2022-12-18T22:01:46;9.30;99.90
39277;DHT22;63149;48.086;-1.606;2022-12-18T22:04:13;9.30;99.90
39277;DHT22;63149;48.086;-1.606;2022-12-18T22:06:40;9.40;99.90
39277;DHT22;63149;48.086;-1.606;2022-12-18T22:09:09;9.30;99.90
39277;DHT22;63149;48.086;-1.606;2022-12-18T22:11:36;9.40;99.90
39277;DHT22;63149;48.086;-1.606;2022-12-18T22:14:03;9.30;99.90
39277;DHT22;63149;48.086;-1.606;2022-12-18T22:16:30;9.30;99.90
39277;DHT22;63149;48.086;-1.606;2022-12-18T22:18:59;9.30;99.90
39277;DHT22;63149;48.086;-1.606;2022-12-18T22:21:27;9.30;99.90